Time;durP1;ratioP1;P1;durP2;ratioP2;P2;SDS_P1;SDS_P2;PMS_P1;PMS_P2;Temp;Humidity;BMP_temperature;BMP_pressure;BME280_temperature;BME280_humidity;BME280_pressure;Samples;Min_cycle;Max_cycle;Signal;HPM_P1;HPM_P2
2021/12/19 00:00:28;;;;;;;8.85;6.53;;;17.00;48.00;;;;;;5114714;28;20088;-38
2021/12/19 00:08:49;;;;;;;9.00;6.43;;;17.00;47.90;;;;;;5114873;28;20031;-39
2021/12/19 00:11:16;;;;;;;8.70;6.25;;;17.10;47.90;;;;;;5114732;28;20024;-40
2021/12/19 00:13:42;;;;;;;8.55;6.40;;;17.00;47.90;;;;;;5096693;28;20031;-39
2021/12/19 00:16:08;;;;;;;8.60;5.97;;;17.10;47.90;;;;;;5114504;28;20523;-39
2021/12/19 00:18:34;;;;;;;8.48;5.88;;;17.10;47.80;;;;;;5114819;28;20011;-40
2021/12/19 00:21:00;;;;;;;8.40;6.15;;;17.10;47.80;;;;;;5114626;28;20016;-39
2021/12/19 00:23:27;;;;;;;9.63;6.60;;;17.10;47.70;;;;;;5096183;28;20051;-40
2021/12/19 00:25:53;;;;;;;8.65;6.07;;;17.10;47.60;;;;;;5115537;28;20023;-41
2021/12/19 00:28:21;;;;;;;8.40;6.20;;;17.10;47.70;;;;;;5114492;28;20008;-41
2021/12/19 00:30:47;;;;;;;9.48;6.68;;;17.10;47.60;;;;;;5114680;28;20439;-42
2021/12/19 00:33:12;;;;;;;8.13;6.30;;;17.10;47.70;;;;;;5114795;28;20028;-41
2021/12/19 00:35:38;;;;;;;8.23;6.22;;;17.10;47.70;;;;;;5115105;28;20111;-42
2021/12/19 00:38:05;;;;;;;8.20;6.07;;;17.10;47.60;;;;;;5114632;28;20023;-42
2021/12/19 00:40:32;;;;;;;9.02;6.60;;;17.10;47.60;;;;;;5114538;28;20024;-43
2021/12/19 00:43:07;;;;;;;8.73;6.20;;;17.10;47.60;;;;;;5113845;28;20038;-41
2021/12/19 00:45:35;;;;;;;8.52;6.38;;;17.10;47.50;;;;;;5114340;28;20065;-37
2021/12/19 00:48:02;;;;;;;7.95;5.80;;;17.20;47.60;;;;;;5114287;28;20019;-37
2021/12/19 00:50:28;;;;;;;7.90;5.65;;;17.10;47.50;;;;;;5114258;28;20011;-37
2021/12/19 00:52:54;;;;;;;8.27;5.88;;;17.10;47.40;;;;;;5113961;28;20016;-37
2021/12/19 00:55:20;;;;;;;8.38;5.88;;;17.20;47.40;;;;;;5114242;28;20031;-37
2021/12/19 00:57:47;;;;;;;7.55;5.57;;;17.20;47.40;;;;;;5114393;28;20026;-37
2021/12/19 01:00:14;;;;;;;7.75;5.80;;;17.10;47.40;;;;;;5114286;28;20045;-37
2021/12/19 01:02:41;;;;;;;8.32;6.05;;;17.10;47.40;;;;;;5114014;28;20090;-37
2021/12/19 01:05:07;;;;;;;7.95;5.57;;;17.10;47.40;;;;;;5114159;28;20527;-40
2021/12/19 01:07:32;;;;;;;8.18;5.75;;;17.10;47.40;;;;;;5079489;28;20030;-38
2021/12/19 01:09:58;;;;;;;8.27;5.80;;;17.20;47.30;;;;;;5096341;28;20011;-38
2021/12/19 01:12:25;;;;;;;7.40;5.40;;;17.20;47.30;;;;;;5079039;28;20016;-39
2021/12/19 01:14:51;;;;;;;6.93;5.22;;;17.20;47.30;;;;;;5114152;28;20020;-39
2021/12/19 01:17:17;;;;;;;8.38;5.85;;;17.10;47.30;;;;;;5114681;28;20418;-38
2021/12/19 01:19:45;;;;;;;8.35;5.55;;;17.20;47.30;;;;;;5117269;28;20485;-39
2021/12/19 01:22:11;;;;;;;7.10;5.10;;;17.20;47.30;;;;;;5116971;28;20043;-41
2021/12/19 01:24:37;;;;;;;7.20;5.25;;;17.10;47.30;;;;;;5115382;28;20034;-40
2021/12/19 01:27:08;;;;;;;7.28;5.30;;;17.10;47.40;;;;;;5113942;28;20040;-40
2021/12/19 01:29:34;;;;;;;7.50;5.47;;;17.10;47.30;;;;;;5114750;28;20450;-41
2021/12/19 01:32:00;;;;;;;7.18;5.15;;;17.10;47.30;;;;;;5114639;28;20046;-39
2021/12/19 01:34:26;;;;;;;8.70;5.65;;;17.10;47.30;;;;;;5096329;28;20382;-41
2021/12/19 01:36:53;;;;;;;6.60;4.82;;;17.10;47.30;;;;;;5114753;28;20470;-41
2021/12/19 01:39:18;;;;;;;6.88;4.85;;;17.20;47.30;;;;;;5116932;28;20047;-40
2021/12/19 01:41:52;;;;;;;7.15;4.93;;;17.20;47.30;;;;;;5099737;28;20027;-40
2021/12/19 01:44:18;;;;;;;6.55;5.05;;;17.20;47.20;;;;;;5117205;28;20053;-41
2021/12/19 01:46:46;;;;;;;6.45;4.78;;;17.20;47.30;;;;;;5117881;28;20012;-41
2021/12/19 01:49:12;;;;;;;6.15;4.53;;;17.20;47.30;;;;;;5120210;28;20031;-41
2021/12/19 01:51:38;;;;;;;6.20;4.78;;;17.20;47.20;;;;;;5121396;28;20042;-41
2021/12/19 01:54:04;;;;;;;6.45;4.90;;;17.20;47.20;;;;;;5120249;28;20019;-41
2021/12/19 01:56:33;;;;;;;6.10;4.30;;;17.20;47.30;;;;;;5120340;28;20156;-42
2021/12/19 01:58:59;;;;;;;6.18;4.63;;;17.20;47.20;;;;;;5118533;28;20397;-41
2021/12/19 02:01:25;;;;;;;6.18;4.53;;;17.10;47.80;;;;;;5118068;28;20094;-40
2021/12/19 02:03:51;;;;;;;6.40;4.60;;;17.10;47.40;;;;;;5117384;28;20078;-42
2021/12/19 02:06:18;;;;;;;5.90;4.28;;;17.10;47.50;;;;;;5117754;28;20027;-42
2021/12/19 02:08:45;;;;;;;6.43;4.70;;;17.10;47.50;;;;;;5118027;28;20019;-43
2021/12/19 02:11:13;;;;;;;6.40;4.78;;;17.00;47.50;;;;;;5100673;28;20011;-43
2021/12/19 02:13:39;;;;;;;6.47;4.60;;;17.00;47.60;;;;;;5118076;28;20432;-42
2021/12/19 02:16:06;;;;;;;6.18;4.70;;;17.00;47.60;;;;;;5117875;28;20468;-43
2021/12/19 02:18:32;;;;;;;5.82;4.05;;;17.00;47.60;;;;;;5117571;28;20020;-43
2021/12/19 02:20:58;;;;;;;6.78;4.35;;;17.00;47.70;;;;;;5117844;28;20473;-42
2021/12/19 02:23:26;;;;;;;6.05;4.40;;;16.90;47.80;;;;;;5117839;28;20028;-42
2021/12/19 02:25:51;;;;;;;5.70;4.20;;;16.90;47.90;;;;;;5116998;28;20012;-42
2021/12/19 02:28:17;;;;;;;5.65;4.38;;;16.90;48.00;;;;;;5116536;28;20023;-42
2021/12/19 02:30:44;;;;;;;6.30;4.22;;;16.80;48.20;;;;;;5116338;28;20352;-45
2021/12/19 02:33:13;;;;;;;5.80;4.10;;;16.80;48.00;;;;;;5116266;28;20023;-42
2021/12/19 02:35:40;;;;;;;5.97;4.35;;;16.80;48.10;;;;;;5116484;28;20012;-42
2021/12/19 02:38:34;;;;;;;5.90;4.18;;;16.70;48.20;;;;;;5098496;28;20066;-42
2021/12/19 02:49:26;;;;;;;6.55;4.57;;;16.70;48.40;;;;;;5100891;28;20019;-44
2021/12/19 02:51:52;;;;;;;6.72;4.18;;;16.60;48.50;;;;;;5115559;28;20058;-42
2021/12/19 02:54:18;;;;;;;6.10;4.38;;;16.60;48.50;;;;;;5116082;28;20019;-43
2021/12/19 02:56:45;;;;;;;6.15;4.63;;;16.60;48.60;;;;;;5116428;28;20030;-43
2021/12/19 02:59:12;;;;;;;6.65;4.72;;;16.60;48.70;;;;;;5116080;28;20068;-42
2021/12/19 03:01:38;;;;;;;6.13;4.25;;;16.50;48.70;;;;;;5115537;28;20430;-42
2021/12/19 03:04:06;;;;;;;6.60;4.32;;;16.60;48.80;;;;;;5115752;28;20027;-43
2021/12/19 03:06:32;;;;;;;7.10;4.82;;;16.60;48.80;;;;;;5115507;28;20018;-42
2021/12/19 03:09:04;;;;;;;6.20;4.40;;;16.50;48.80;;;;;;5115672;28;20028;-43
2021/12/19 03:19:30;;;;;;;6.85;5.00;;;16.40;49.30;;;;;;5115700;28;20513;-44
2021/12/19 03:21:56;;;;;;;7.30;5.05;;;16.30;49.30;;;;;;5115880;28;20019;-42
2021/12/19 03:24:22;;;;;;;7.82;4.95;;;16.30;49.40;;;;;;5115313;28;20027;-43
2021/12/19 03:26:48;;;;;;;8.15;5.38;;;16.30;49.40;;;;;;5115570;28;20007;-43
2021/12/19 03:29:14;;;;;;;7.63;5.28;;;16.30;49.50;;;;;;5115884;28;20034;-44
2021/12/19 03:31:40;;;;;;;7.50;5.50;;;16.30;49.50;;;;;;5115697;28;20041;-44
2021/12/19 03:34:06;;;;;;;7.38;5.13;;;16.30;49.50;;;;;;5115683;28;20015;-43
2021/12/19 03:36:32;;;;;;;7.57;4.80;;;16.30;49.60;;;;;;5097412;28;20103;-43
2021/12/19 03:39:01;;;;;;;7.60;4.97;;;16.20;49.60;;;;;;5116005;28;20050;-43
2021/12/19 03:41:33;;;;;;;7.70;5.35;;;16.20;49.70;;;;;;5115233;28;20016;-44
2021/12/19 03:44:01;;;;;;;9.23;5.70;;;16.20;49.70;;;;;;5114783;28;20028;-43
2021/12/19 03:46:27;;;;;;;9.25;5.65;;;16.20;49.70;;;;;;5115668;28;20015;-43
2021/12/19 03:48:53;;;;;;;9.30;5.82;;;16.20;49.70;;;;;;5115310;28;20077;-43
2021/12/19 03:51:20;;;;;;;8.07;5.38;;;16.20;49.70;;;;;;5098320;28;20037;-44
2021/12/19 03:53:45;;;;;;;9.57;5.97;;;16.20;49.70;;;;;;5115969;28;20012;-43
2021/12/19 03:56:12;;;;;;;10.13;6.18;;;16.20;49.90;;;;;;5115222;28;20031;-43
2021/12/19 03:58:38;;;;;;;9.65;5.97;;;16.20;50.00;;;;;;5114940;28;20023;-42
2021/12/19 04:01:07;;;;;;;9.90;5.95;;;16.20;50.00;;;;;;5114646;28;20099;-42
2021/12/19 04:03:33;;;;;;;10.55;6.28;;;16.10;50.00;;;;;;5113820;28;20606;-42
2021/12/19 04:05:59;;;;;;;10.30;5.90;;;16.10;50.10;;;;;;5096757;28;20091;-43
2021/12/19 04:08:25;;;;;;;10.25;6.05;;;16.10;50.10;;;;;;5114812;28;20103;-42
2021/12/19 04:10:52;;;;;;;10.05;5.68;;;16.00;50.20;;;;;;5114705;28;20050;-44
2021/12/19 04:13:18;;;;;;;9.88;6.07;;;16.00;50.20;;;;;;5114710;28;20034;-44
2021/12/19 04:15:44;;;;;;;9.98;5.88;;;16.00;50.30;;;;;;5114520;28;20036;-43
2021/12/19 04:18:10;;;;;;;10.13;5.82;;;16.00;50.40;;;;;;5114512;28;20470;-43
2021/12/19 04:20:36;;;;;;;10.95;6.38;;;16.00;50.40;;;;;;5114245;28;20024;-45
2021/12/19 04:23:03;;;;;;;11.63;6.80;;;16.00;50.40;;;;;;5114236;28;20031;-43
2021/12/19 04:25:29;;;;;;;10.05;6.47;;;16.00;50.50;;;;;;5114871;28;20556;-44
2021/12/19 04:27:55;;;;;;;8.90;5.57;;;16.00;50.50;;;;;;5114899;28;20093;-44
2021/12/19 04:30:23;;;;;;;11.27;6.22;;;16.00;50.50;;;;;;5114543;28;20470;-44
2021/12/19 04:32:58;;;;;;;11.80;6.57;;;16.00;50.60;;;;;;5114705;28;20041;-43
2021/12/19 04:35:31;;;;;;;11.35;6.72;;;15.90;50.60;;;;;;5114639;28;20008;-43
2021/12/19 04:52:10;;;;;;;12.60;7.15;;;15.90;50.80;;;;;;5114554;28;20031;-44
2021/12/19 05:15:31;;;;;;;14.98;8.43;;;15.80;51.10;;;;;;5114415;28;20031;-44
2021/12/19 05:18:02;;;;;;;16.15;8.52;;;15.80;51.20;;;;;;5115943;28;20089;-45
2021/12/19 05:20:35;;;;;;;15.77;8.85;;;15.80;51.20;;;;;;5114944;28;20019;-44
2021/12/19 05:23:09;;;;;;;14.90;7.63;;;15.80;51.20;;;;;;5115484;28;20028;-46
2021/12/19 05:25:35;;;;;;;14.13;8.10;;;15.80;51.30;;;;;;5113798;28;20019;-38
2021/12/19 05:28:03;;;;;;;18.08;9.27;;;15.80;51.30;;;;;;5114065;28;20038;-37
2021/12/19 05:30:30;;;;;;;15.82;8.25;;;15.80;51.30;;;;;;5113787;28;20008;-37
2021/12/19 05:32:56;;;;;;;16.10;8.88;;;15.70;51.30;;;;;;5113752;28;20034;-37
2021/12/19 05:35:32;;;;;;;16.65;8.85;;;15.70;51.30;;;;;;5113653;28;20473;-37
2021/12/19 05:46:11;;;;;;;15.70;8.38;;;15.70;51.40;;;;;;5114139;28;20497;-39
2021/12/19 05:48:38;;;;;;;15.70;8.80;;;15.70;51.50;;;;;;5114337;28;20485;-39
2021/12/19 05:51:04;;;;;;;14.30;8.80;;;15.70;51.50;;;;;;5113312;28;20035;-38
2021/12/19 05:53:30;;;;;;;16.15;8.32;;;15.70;51.50;;;;;;5113326;28;20053;-38
2021/12/19 05:55:57;;;;;;;18.38;9.32;;;15.70;51.50;;;;;;5113569;28;20016;-38
2021/12/19 05:58:24;;;;;;;17.90;9.70;;;15.70;51.50;;;;;;5113348;28;20041;-39
2021/12/19 06:00:50;;;;;;;19.40;10.13;;;15.70;51.60;;;;;;5113692;28;20028;-38
2021/12/19 06:03:16;;;;;;;16.85;9.55;;;15.70;51.60;;;;;;5113820;28;20432;-38
2021/12/19 06:05:42;;;;;;;17.23;9.55;;;15.70;51.60;;;;;;5113715;28;20031;-40
2021/12/19 06:08:09;;;;;;;16.65;9.00;;;15.70;51.70;;;;;;5113654;28;20103;-39
2021/12/19 06:10:36;;;;;;;17.35;9.48;;;15.70;51.70;;;;;;5114308;28;20037;-40
2021/12/19 06:13:02;;;;;;;16.40;8.77;;;15.70;51.70;;;;;;5113736;28;20016;-39
2021/12/19 06:15:28;;;;;;;15.57;9.07;;;15.70;51.70;;;;;;5113424;28;20048;-40
2021/12/19 06:17:55;;;;;;;16.75;9.18;;;15.70;51.70;;;;;;5113761;28;20011;-40
2021/12/19 06:20:24;;;;;;;16.90;9.15;;;15.70;51.80;;;;;;5113495;28;20105;-39
2021/12/19 06:22:50;;;;;;;17.38;9.52;;;15.60;51.70;;;;;;5113481;28;20027;-40
2021/12/19 06:25:17;;;;;;;17.50;9.57;;;15.60;51.80;;;;;;5113666;28;20031;-38
2021/12/19 06:27:42;;;;;;;15.35;8.93;;;15.60;51.80;;;;;;5117238;28;20019;-37
2021/12/19 06:30:09;;;;;;;16.13;9.40;;;15.60;51.80;;;;;;5116952;28;20511;-38
2021/12/19 06:32:34;;;;;;;15.38;8.68;;;15.60;51.80;;;;;;5117294;28;20019;-38
2021/12/19 06:35:06;;;;;;;16.17;9.00;;;15.60;51.80;;;;;;5116904;28;20549;-38
2021/12/19 06:37:35;;;;;;;15.85;8.77;;;15.60;51.80;;;;;;5116875;28;20016;-37
2021/12/19 06:40:02;;;;;;;15.55;8.77;;;15.60;51.90;;;;;;5116448;28;20020;-37
2021/12/19 06:42:34;;;;;;;14.00;8.10;;;15.60;51.80;;;;;;5116377;28;20442;-37
2021/12/19 06:45:00;;;;;;;15.50;8.75;;;15.60;51.80;;;;;;5116380;28;20462;-39
2021/12/19 06:47:26;;;;;;;13.75;8.10;;;15.60;51.80;;;;;;5098951;28;20026;-38
2021/12/19 06:49:53;;;;;;;14.32;8.50;;;15.60;51.80;;;;;;5098058;28;20015;-38
2021/12/19 06:52:19;;;;;;;15.25;8.57;;;15.60;51.80;;;;;;5116231;28;20082;-38
2021/12/19 06:54:45;;;;;;;14.80;8.43;;;15.60;51.80;;;;;;5116209;28;20481;-38
2021/12/19 06:57:11;;;;;;;13.63;7.65;;;15.60;51.80;;;;;;5116215;28;20023;-38
2021/12/19 06:59:37;;;;;;;12.25;7.43;;;15.60;51.80;;;;;;5115869;28;20023;-38
2021/12/19 07:02:03;;;;;;;12.40;7.47;;;15.60;51.80;;;;;;5097883;28;20022;-39
2021/12/19 07:04:30;;;;;;;13.55;8.07;;;15.60;51.90;;;;;;5116282;28;20531;-37
2021/12/19 07:06:56;;;;;;;10.80;6.90;;;15.50;51.90;;;;;;5116477;28;20076;-37
2021/12/19 07:09:22;;;;;;;12.55;7.03;;;15.60;51.90;;;;;;5116168;28;20016;-37
2021/12/19 07:11:48;;;;;;;13.02;7.65;;;15.50;51.90;;;;;;5116122;28;20023;-37
2021/12/19 07:14:15;;;;;;;12.52;7.18;;;15.60;51.90;;;;;;5116069;28;20023;-37
2021/12/19 07:16:41;;;;;;;12.13;7.30;;;15.60;51.90;;;;;;5115948;28;20077;-37
2021/12/19 07:19:07;;;;;;;12.02;7.28;;;15.60;51.90;;;;;;5098292;28;20408;-38
2021/12/19 07:21:33;;;;;;;11.07;6.63;;;15.60;51.90;;;;;;5116322;28;20051;-38
2021/12/19 07:24:00;;;;;;;9.52;5.97;;;15.50;51.90;;;;;;5116344;28;20039;-37
2021/12/19 07:26:26;;;;;;;11.70;6.55;;;15.60;51.90;;;;;;5115974;28;20053;-37
2021/12/19 07:28:52;;;;;;;12.95;7.22;;;15.60;51.70;;;;;;5116216;28;20040;-38
2021/12/19 07:31:20;;;;;;;10.73;6.00;;;15.60;51.70;;;;;;5116038;28;20370;-37
2021/12/19 07:33:47;;;;;;;11.00;6.10;;;15.60;51.60;;;;;;5116059;28;20523;-37
2021/12/19 07:36:14;;;;;;;11.45;6.43;;;15.70;51.50;;;;;;5115019;28;20500;-38
2021/12/19 07:41:37;;;;;;;11.20;6.35;;;15.80;51.30;;;;;;5040459;28;20025;-38
2021/12/19 07:44:06;;;;;;;10.07;6.05;;;15.90;50.60;;;;;;5052334;28;20497;-38
2021/12/19 07:46:32;;;;;;;10.93;6.22;;;16.10;50.40;;;;;;5051962;28;20032;-37
2021/12/19 07:48:58;;;;;;;9.70;5.70;;;16.20;50.20;;;;;;5035403;28;20523;-37
2021/12/19 07:51:46;;;;;;;9.57;6.03;;;16.20;50.00;;;;;;5051915;28;20032;-37
2021/12/19 07:54:12;;;;;;;9.27;5.70;;;16.20;49.90;;;;;;5051879;28;20025;-38
2021/12/19 07:56:37;;;;;;;10.63;6.10;;;16.30;49.70;;;;;;5035298;28;20091;-37
2021/12/19 07:59:24;;;;;;;8.93;5.57;;;16.40;49.60;;;;;;5051653;28;20395;-37
2021/12/19 08:02:10;;;;;;;8.32;5.20;;;16.40;49.50;;;;;;5051758;28;20488;-37
2021/12/19 08:04:37;;;;;;;9.55;5.70;;;16.50;49.20;;;;;;5051773;28;20075;-39
2021/12/19 08:07:03;;;;;;;9.65;5.88;;;16.50;49.20;;;;;;5051739;28;20048;-39
2021/12/19 08:09:57;;;;;;;9.07;5.45;;;16.50;49.10;;;;;;5051647;28;20021;-40
2021/12/19 08:12:23;;;;;;;9.40;5.25;;;16.50;49.00;;;;;;5051683;28;20096;-40
2021/12/19 08:14:50;;;;;;;8.63;5.25;;;16.60;48.90;;;;;;5051712;28;20040;-40
2021/12/19 08:17:17;;;;;;;8.43;5.10;;;16.60;48.80;;;;;;5084324;28;20096;-40
2021/12/19 08:19:43;;;;;;;7.70;4.70;;;16.60;48.80;;;;;;5114397;28;20118;-41
2021/12/19 08:22:09;;;;;;;8.20;5.00;;;16.70;48.80;;;;;;5114332;28;20023;-39
2021/12/19 08:24:36;;;;;;;7.53;4.82;;;16.70;48.70;;;;;;5114426;28;20081;-37
2021/12/19 08:27:02;;;;;;;7.68;4.95;;;16.70;48.50;;;;;;5114133;28;20450;-37
2021/12/19 08:29:29;;;;;;;7.00;4.75;;;16.70;49.00;;;;;;5114023;28;20020;-37
2021/12/19 08:31:55;;;;;;;7.38;4.60;;;16.80;48.50;;;;;;5114413;28;20042;-38
2021/12/19 08:34:21;;;;;;;7.25;4.65;;;16.80;48.40;;;;;;5096076;28;20020;-37
2021/12/19 08:36:47;;;;;;;7.13;4.10;;;16.80;48.30;;;;;;5113818;28;20492;-38
2021/12/19 08:39:15;;;;;;;7.43;4.63;;;16.80;48.30;;;;;;5113928;28;20016;-37
2021/12/19 08:41:40;;;;;;;8.73;5.00;;;16.80;48.20;;;;;;5114063;28;20023;-37
2021/12/19 08:44:06;;;;;;;7.80;4.63;;;16.90;48.20;;;;;;5113927;28;20036;-37
2021/12/19 08:46:35;;;;;;;8.65;4.85;;;16.90;48.20;;;;;;5095502;28;20486;-39
2021/12/19 08:49:02;;;;;;;7.07;4.68;;;16.90;48.00;;;;;;5113362;28;20020;-39
2021/12/19 08:51:29;;;;;;;6.82;4.28;;;16.90;48.00;;;;;;5113838;28;20016;-39
2021/12/19 08:53:55;;;;;;;6.78;4.50;;;17.00;48.00;;;;;;5113533;28;20024;-39
2021/12/19 08:56:21;;;;;;;6.38;4.35;;;17.00;48.00;;;;;;5113759;28;20069;-39
2021/12/19 08:58:47;;;;;;;7.03;4.30;;;17.00;48.00;;;;;;5113662;28;20404;-39
2021/12/19 09:01:13;;;;;;;8.00;4.40;;;16.90;48.00;;;;;;5113691;28;20474;-39
2021/12/19 09:03:39;;;;;;;6.50;4.13;;;17.00;48.00;;;;;;5113326;28;20470;-39
2021/12/19 09:06:06;;;;;;;6.32;3.95;;;17.00;47.90;;;;;;5113622;28;20061;-41
2021/12/19 09:08:32;;;;;;;6.40;4.10;;;17.00;47.90;;;;;;5113315;28;20019;-42
2021/12/19 09:10:57;;;;;;;5.90;3.70;;;17.00;47.80;;;;;;5113306;28;20012;-40
2021/12/19 09:13:23;;;;;;;7.47;4.07;;;17.10;47.70;;;;;;5113263;28;20047;-40
2021/12/19 09:15:49;;;;;;;6.55;3.97;;;17.10;47.70;;;;;;5113480;28;20105;-41
2021/12/19 09:18:16;;;;;;;6.18;3.97;;;17.10;47.70;;;;;;5113603;28;20035;-49
2021/12/19 09:20:41;;;;;;;6.10;4.07;;;17.10;47.70;;;;;;5113288;28;20031;-41
2021/12/19 09:23:08;;;;;;;6.40;4.03;;;17.10;47.60;;;;;;5113142;28;20019;-41
2021/12/19 09:25:35;;;;;;;5.80;3.70;;;17.10;47.60;;;;;;5113651;28;20019;-44
2021/12/19 09:28:02;;;;;;;6.63;3.90;;;17.10;47.50;;;;;;5095629;28;20027;-42
2021/12/19 09:30:28;;;;;;;5.90;4.10;;;17.10;47.50;;;;;;5113668;28;20012;-44
2021/12/19 09:32:54;;;;;;;5.78;4.03;;;17.10;47.50;;;;;;5113506;28;20028;-41
2021/12/19 09:35:20;;;;;;;6.03;3.85;;;17.20;47.60;;;;;;5113380;28;20012;-42
2021/12/19 09:37:47;;;;;;;6.40;3.90;;;17.10;47.50;;;;;;5113035;28;20024;-43
2021/12/19 09:40:17;;;;;;;5.97;3.90;;;17.20;47.50;;;;;;5113258;28;20073;-42
2021/12/19 09:42:48;;;;;;;6.40;4.22;;;17.20;47.50;;;;;;5113320;28;20028;-42
2021/12/19 09:45:14;;;;;;;6.68;3.88;;;17.20;47.40;;;;;;5112908;28;20020;-42
2021/12/19 09:47:41;;;;;;;6.82;4.15;;;17.20;47.40;;;;;;5113224;28;20015;-44
2021/12/19 09:50:08;;;;;;;5.82;3.80;;;17.20;47.40;;;;;;5113229;28;20031;-42
2021/12/19 09:52:34;;;;;;;6.10;3.95;;;17.30;47.50;;;;;;5113149;28;20011;-42
2021/12/19 09:55:01;;;;;;;6.55;4.00;;;17.30;47.40;;;;;;5113227;28;20016;-41
2021/12/19 09:57:27;;;;;;;6.15;3.97;;;17.30;47.30;;;;;;5114354;28;20012;-44
2021/12/19 09:59:53;;;;;;;6.35;4.13;;;17.30;47.30;;;;;;5097012;28;20489;-46
2021/12/19 10:02:20;;;;;;;7.28;4.47;;;17.30;47.30;;;;;;5117947;28;20363;-44
2021/12/19 10:04:47;;;;;;;6.75;4.07;;;17.30;47.30;;;;;;5117994;28;20030;-43
2021/12/19 10:07:19;;;;;;;7.63;4.03;;;17.30;47.30;;;;;;5117753;28;20046;-42
2021/12/19 10:10:11;;;;;;;6.28;3.55;;;17.30;47.40;;;;;;5118140;28;20030;-42
2021/12/19 10:12:49;;;;;;;6.53;4.10;;;17.30;47.40;;;;;;5117176;28;20016;-41
2021/12/19 10:15:18;;;;;;;6.57;4.18;;;17.30;47.40;;;;;;5117278;28;20015;-42
2021/12/19 10:17:44;;;;;;;5.97;4.20;;;17.30;47.30;;;;;;5116760;28;20513;-42
2021/12/19 10:20:13;;;;;;;7.20;3.72;;;17.30;47.30;;;;;;5116674;28;20027;-41
2021/12/19 10:22:46;;;;;;;6.25;4.10;;;17.40;47.90;;;;;;5117405;28;20032;-41
2021/12/19 10:25:14;;;;;;;6.47;4.28;;;17.40;47.30;;;;;;5118051;28;20106;-40
2021/12/19 10:27:43;;;;;;;7.05;4.22;;;17.40;47.30;;;;;;5120118;28;20027;-43
2021/12/19 10:30:18;;;;;;;6.10;4.20;;;17.40;47.20;;;;;;5119732;28;20535;-40
2021/12/19 10:32:53;;;;;;;7.32;4.65;;;17.40;47.20;;;;;;5120661;28;20020;-40
2021/12/19 10:35:39;;;;;;;6.68;4.40;;;17.40;47.30;;;;;;5121471;28;20022;-41
2021/12/19 10:38:09;;;;;;;6.03;3.90;;;17.40;47.30;;;;;;5121047;28;20043;-41
2021/12/19 10:40:35;;;;;;;7.72;4.55;;;17.40;47.30;;;;;;5084739;28;20060;-39
2021/12/19 10:43:04;;;;;;;6.50;4.43;;;17.40;47.30;;;;;;5119471;28;20027;-41
2021/12/19 10:45:34;;;;;;;6.75;4.40;;;17.40;47.30;;;;;;5119465;28;20018;-42
2021/12/19 10:48:11;;;;;;;6.93;4.25;;;17.40;47.30;;;;;;5118035;28;20419;-42
2021/12/19 10:51:09;;;;;;;6.93;4.65;;;17.40;47.30;;;;;;5118099;28;20004;-42
2021/12/19 10:53:36;;;;;;;6.47;4.32;;;17.40;47.40;;;;;;5113255;28;20077;-41
2021/12/19 10:56:06;;;;;;;6.28;4.20;;;17.40;47.30;;;;;;5100098;28;20019;-41
2021/12/19 10:58:42;;;;;;;7.00;4.30;;;17.40;47.40;;;;;;5119143;28;20016;-43
2021/12/19 11:01:16;;;;;;;6.32;4.18;;;17.50;47.30;;;;;;5119210;28;20386;-40
2021/12/19 11:03:43;;;;;;;6.40;4.40;;;17.40;47.30;;;;;;5119309;28;20547;-40
2021/12/19 11:06:24;;;;;;;6.82;4.30;;;17.50;47.40;;;;;;5119131;28;20023;-38
2021/12/19 11:08:51;;;;;;;6.22;4.20;;;17.40;47.50;;;;;;5118641;28;20019;-38
2021/12/19 11:11:35;;;;;;;6.55;4.30;;;17.50;47.40;;;;;;5115384;28;20015;-38
2021/12/19 11:14:03;;;;;;;6.45;4.38;;;17.50;47.50;;;;;;5115899;28;20534;-38
2021/12/19 11:16:29;;;;;;;6.05;4.32;;;17.50;47.50;;;;;;5115778;28;20051;-38
2021/12/19 11:18:55;;;;;;;5.55;4.22;;;17.50;47.50;;;;;;5115778;28;20030;-38
2021/12/19 11:21:21;;;;;;;6.75;4.60;;;17.50;47.50;;;;;;5115763;28;20076;-38
2021/12/19 11:23:47;;;;;;;6.93;4.47;;;17.40;47.50;;;;;;5116138;28;20032;-38
2021/12/19 11:26:13;;;;;;;5.75;4.45;;;17.50;47.40;;;;;;5116584;28;20031;-38
2021/12/19 11:28:39;;;;;;;6.93;4.72;;;17.50;47.50;;;;;;5081544;28;20039;-37
2021/12/19 11:31:06;;;;;;;6.65;4.82;;;17.50;47.40;;;;;;5115435;28;20014;-37
2021/12/19 11:33:46;;;;;;;6.07;4.50;;;17.50;47.50;;;;;;5115559;28;20028;-37
2021/12/19 11:36:12;;;;;;;6.43;4.55;;;17.50;47.50;;;;;;5081220;28;20024;-38
2021/12/19 11:38:39;;;;;;;8.43;4.68;;;17.50;47.50;;;;;;5115439;28;20073;-38
2021/12/19 11:41:11;;;;;;;6.45;4.60;;;17.50;47.60;;;;;;5117064;28;20020;-38
2021/12/19 11:43:38;;;;;;;7.53;4.65;;;17.50;47.70;;;;;;5117260;28;20032;-38
2021/12/19 11:46:12;;;;;;;7.20;4.70;;;17.50;47.60;;;;;;5098895;28;20090;-39
2021/12/19 11:48:39;;;;;;;6.65;4.45;;;17.50;47.60;;;;;;5117108;28;20048;-39
2021/12/19 11:51:15;;;;;;;5.25;4.13;;;17.50;47.60;;;;;;5099149;28;20016;-38
2021/12/19 11:53:43;;;;;;;5.95;4.47;;;17.50;47.70;;;;;;5083484;28;20024;-37
2021/12/19 11:56:10;;;;;;;5.72;4.22;;;17.50;47.70;;;;;;5118040;28;20084;-38
2021/12/19 11:58:52;;;;;;;6.75;4.70;;;17.50;47.70;;;;;;5118124;28;20023;-38
2021/12/19 12:01:29;;;;;;;7.07;4.80;;;17.50;47.70;;;;;;5118243;28;20016;-38
2021/12/19 12:03:56;;;;;;;5.53;4.38;;;17.50;47.70;;;;;;5117065;28;20050;-37
2021/12/19 12:06:28;;;;;;;6.78;4.38;;;17.50;47.70;;;;;;5117572;28;20064;-38
2021/12/19 12:09:21;;;;;;;6.25;4.55;;;17.50;47.70;;;;;;5117415;28;20008;-38
2021/12/19 12:12:06;;;;;;;5.75;4.28;;;17.50;47.70;;;;;;5117116;28;20043;-38
2021/12/19 12:14:38;;;;;;;5.43;4.35;;;17.60;47.70;;;;;;5116700;28;20027;-38
2021/12/19 12:17:12;;;;;;;6.03;4.32;;;17.60;47.70;;;;;;5099656;28;20103;-38
2021/12/19 12:19:42;;;;;;;8.27;4.88;;;17.60;47.70;;;;;;5117190;28;20011;-40
2021/12/19 12:22:30;;;;;;;6.53;4.47;;;17.60;47.70;;;;;;5117228;28;20019;-38
2021/12/19 12:25:07;;;;;;;6.20;4.43;;;17.60;47.80;;;;;;5116318;28;20378;-38
2021/12/19 12:27:42;;;;;;;6.53;4.50;;;17.60;47.80;;;;;;5116750;28;20019;-37
2021/12/19 12:30:23;;;;;;;6.82;4.35;;;17.50;47.80;;;;;;5117380;28;20090;-38
2021/12/19 12:32:49;;;;;;;7.60;4.57;;;17.50;48.00;;;;;;5117057;28;20018;-38
2021/12/19 12:35:15;;;;;;;7.22;4.57;;;17.60;48.00;;;;;;5117093;28;20035;-38
2021/12/19 12:37:41;;;;;;;6.00;4.20;;;17.50;48.00;;;;;;5117146;28;20020;-38
2021/12/19 12:40:19;;;;;;;5.13;4.10;;;17.60;48.00;;;;;;5116668;28;20023;-38
2021/12/19 12:43:09;;;;;;;5.80;4.35;;;17.60;48.00;;;;;;5116243;28;20041;-38
2021/12/19 12:45:48;;;;;;;6.15;4.47;;;17.50;48.00;;;;;;5098868;28;20066;-38
2021/12/19 12:48:45;;;;;;;5.22;4.18;;;17.50;48.00;;;;;;5116482;28;20541;-39
2021/12/19 12:51:11;;;;;;;6.60;4.30;;;17.50;48.10;;;;;;5101938;28;20023;-38
2021/12/19 12:53:45;;;;;;;5.13;3.88;;;17.50;48.20;;;;;;5116362;28;20020;-38
2021/12/19 12:56:17;;;;;;;5.45;4.13;;;17.50;48.20;;;;;;5099697;28;20519;-38
2021/12/19 12:58:55;;;;;;;5.15;3.80;;;17.50;48.30;;;;;;5116711;28;20035;-39
2021/12/19 13:01:42;;;;;;;5.63;3.95;;;17.50;48.20;;;;;;5115057;28;20462;-38
2021/12/19 13:04:15;;;;;;;4.40;3.67;;;17.50;48.10;;;;;;5114360;28;20023;-39
2021/12/19 13:06:48;;;;;;;4.30;3.40;;;17.60;48.10;;;;;;5115135;28;20019;-38
2021/12/19 13:09:19;;;;;;;5.57;3.75;;;17.50;48.10;;;;;;5115338;28;20019;-39
2021/12/19 13:11:46;;;;;;;3.80;3.20;;;17.60;48.20;;;;;;5118277;28;20137;-41
2021/12/19 13:14:26;;;;;;;4.60;3.50;;;17.60;48.20;;;;;;5119018;28;20031;-39
2021/12/19 13:16:53;;;;;;;;;;;17.60;48.30;;;;;;5119636;28;20063;-39
2021/12/19 13:19:39;;;;;;;4.70;3.35;;;17.60;48.20;;;;;;5102010;28;19927;-40
2021/12/19 13:22:06;;;;;;;3.90;3.00;;;17.60;48.20;;;;;;5118823;28;20519;-40
2021/12/19 13:24:34;;;;;;;3.53;2.85;;;17.60;48.10;;;;;;5117814;28;20084;-38
2021/12/19 13:27:05;;;;;;;5.05;3.22;;;17.60;48.70;;;;;;5117172;28;20015;-38
2021/12/19 13:29:31;;;;;;;3.33;2.70;;;17.60;48.10;;;;;;5116574;28;20020;-38
2021/12/19 13:32:16;;;;;;;3.50;2.60;;;17.60;48.20;;;;;;5116772;28;20426;-38
2021/12/19 13:34:42;;;;;;;3.45;2.80;;;17.60;48.20;;;;;;5117213;28;20482;-38
2021/12/19 13:37:08;;;;;;;3.05;2.60;;;17.60;48.20;;;;;;5102642;28;20061;-38
2021/12/19 13:39:37;;;;;;;3.28;2.70;;;17.60;48.20;;;;;;5120299;28;20020;-38
2021/12/19 13:42:10;;;;;;;3.50;2.85;;;17.60;48.20;;;;;;5119230;28;20034;-39
2021/12/19 13:44:36;;;;;;;3.22;2.45;;;17.60;48.20;;;;;;5119415;28;20024;-38
2021/12/19 13:47:10;;;;;;;3.38;2.60;;;17.70;48.20;;;;;;5119585;28;20086;-42
2021/12/19 13:49:36;;;;;;;3.15;2.20;;;17.70;48.10;;;;;;5101697;28;20016;-38
2021/12/19 13:52:03;;;;;;;3.33;2.42;;;17.60;48.10;;;;;;5101208;28;20091;-37
2021/12/19 13:54:31;;;;;;;3.35;2.35;;;17.70;48.20;;;;;;5083519;28;20107;-39
2021/12/19 13:56:57;;;;;;;2.95;2.30;;;17.60;48.20;;;;;;5117566;28;20066;-38
2021/12/19 13:59:24;;;;;;;3.50;2.20;;;17.60;48.20;;;;;;5099181;28;20036;-38
2021/12/19 14:01:50;;;;;;;2.70;2.20;;;17.70;48.20;;;;;;5099133;28;20016;-39